createdAt,value
2018-04-06T00:00:41.083Z,27.81
2018-04-06T00:01:41.142Z,27.79
2018-04-06T00:02:41.017Z,27.74
2018-04-06T00:03:41.067Z,27.75
2018-04-06T00:04:41.047Z,27.66
2018-04-06T00:05:40.943Z,27.64
2018-04-06T00:06:41.752Z,27.53
2018-04-06T00:07:40.891Z,27.48
2018-04-06T00:08:40.835Z,27.52
2018-04-06T00:09:40.832Z,27.46
2018-04-06T00:10:40.842Z,27.42
2018-04-06T00:11:40.930Z,27.31
2018-04-06T00:12:40.742Z,27.49
2018-04-06T00:13:40.788Z,27.34
2018-04-06T00:14:40.706Z,27.33
2018-04-06T00:15:40.663Z,27.42
2018-04-06T00:16:40.772Z,27.36
2018-04-06T00:17:40.698Z,27.37
2018-04-06T00:18:40.607Z,27.36
2018-04-06T00:19:40.564Z,27.37
2018-04-06T00:20:40.561Z,27.33
2018-04-06T00:21:40.563Z,27.34
2018-04-06T00:22:40.743Z,27.42
2018-04-06T00:23:40.545Z,27.42
2018-04-06T00:24:40.462Z,27.45
2018-04-06T00:25:40.436Z,27.41
2018-04-06T00:26:40.412Z,27.48
2018-04-06T00:27:40.376Z,27.37
2018-04-06T00:42:39.026Z,27.06
2018-04-06T00:43:38.946Z,26.99
2018-04-06T00:44:38.977Z,26.96
2018-04-06T00:45:38.897Z,26.90
2018-04-06T00:46:38.855Z,26.91
2018-04-06T00:47:38.865Z,26.79
2018-04-06T00:48:38.802Z,26.82
2018-04-06T00:49:38.915Z,26.81
2018-04-06T00:50:38.759Z,26.89
2018-04-06T00:51:38.764Z,26.79
2018-04-06T00:52:38.697Z,26.86
2018-04-06T00:53:38.684Z,26.78
2018-04-06T00:54:38.695Z,26.75
2018-04-06T00:55:39.264Z,26.76
2018-04-06T01:06:39.068Z,26.79
2018-04-06T01:07:39.017Z,26.81
2018-04-06T01:08:38.965Z,26.78
2018-04-06T01:09:39.134Z,26.78
2018-04-06T01:10:38.896Z,26.78
2018-04-06T01:11:38.962Z,26.82
2018-04-06T01:12:39.400Z,26.74
2018-04-06T01:13:38.815Z,26.74
2018-04-06T01:14:38.815Z,26.81
2018-04-06T01:15:38.778Z,26.75
2018-04-06T01:16:38.797Z,26.76
2018-04-06T01:17:38.749Z,26.82
2018-04-06T01:18:38.705Z,26.91
2018-04-06T01:19:38.675Z,26.82
2018-04-06T01:20:38.676Z,26.86
2018-04-06T01:21:38.744Z,26.79
2018-04-06T01:22:38.635Z,26.81
2018-04-06T01:23:38.570Z,26.90
2018-04-06T01:24:38.542Z,26.78
2018-04-06T01:25:38.516Z,26.79
2018-04-06T01:26:39.005Z,26.87
2018-04-06T01:27:38.522Z,26.74
2018-04-06T01:28:38.473Z,26.76
2018-04-06T01:29:38.421Z,26.74
2018-04-06T01:30:38.425Z,26.69
2018-04-06T01:31:38.389Z,26.63
2018-04-06T01:32:38.399Z,26.59
2018-04-06T01:33:38.313Z,26.67
2018-04-06T01:34:38.272Z,26.57
2018-04-06T01:35:38.268Z,26.52
2018-04-06T01:36:38.234Z,26.52
2018-04-06T01:37:38.320Z,26.50
2018-04-06T01:38:38.188Z,26.38
2018-04-06T01:39:38.166Z,26.39
2018-04-06T01:40:38.113Z,26.26
2018-04-06T01:41:38.110Z,26.20
2018-04-06T01:42:38.194Z,26.16
2018-04-06T01:43:38.591Z,26.11
2018-04-06T01:44:38.085Z,26.16
2018-04-06T01:45:38.007Z,26.12
2018-04-06T01:46:38.021Z,25.97
2018-04-06T01:47:38.641Z,25.86
2018-04-06T01:48:37.940Z,25.89
2018-04-06T01:49:37.902Z,25.79
2018-04-06T01:50:38.484Z,25.78
2018-04-06T01:51:37.897Z,25.81
2018-04-06T01:52:37.928Z,25.70
2018-04-06T01:53:37.863Z,25.64
2018-04-06T01:54:38.330Z,25.54
2018-04-06T01:55:38.344Z,25.51
2018-04-06T01:56:37.714Z,25.60
2018-04-06T01:57:37.856Z,25.42
2018-04-06T01:58:37.830Z,25.47
2018-04-06T01:59:38.205Z,25.42
2018-04-06T02:00:37.631Z,25.56
2018-04-06T02:01:37.579Z,25.44
2018-04-06T02:02:37.576Z,25.47
2018-04-06T02:03:37.645Z,25.39
2018-04-06T02:04:37.526Z,25.44
2018-04-06T02:05:38.054Z,25.30
2018-04-06T02:06:37.864Z,25.32
2018-04-06T02:07:37.443Z,25.42
2018-04-06T02:08:37.396Z,25.38
2018-04-06T02:09:37.939Z,25.32
2018-04-06T02:10:37.922Z,25.37
2018-04-06T02:13:26.628Z,25.32
2018-04-06T02:14:26.808Z,25.39
2018-04-06T02:15:26.559Z,25.34
2018-04-06T02:16:26.489Z,25.39
2018-04-06T02:17:26.499Z,25.30
2018-04-06T02:18:26.519Z,25.30
2018-04-06T02:19:26.424Z,25.32
2018-04-06T02:20:26.501Z,25.37
2018-04-06T02:21:26.384Z,25.27
2018-04-06T02:22:26.333Z,25.29
2018-04-06T02:23:26.324Z,25.27
2018-04-06T02:24:26.292Z,25.29
2018-04-06T02:25:26.799Z,25.33
2018-04-06T02:26:26.350Z,25.29
2018-04-06T02:27:26.230Z,25.30
2018-04-06T02:28:26.217Z,25.27
2018-04-06T02:29:27.092Z,25.32
2018-04-06T02:30:26.147Z,25.27
2018-04-06T02:31:26.212Z,25.32
2018-04-06T02:32:26.072Z,25.23
2018-04-06T02:33:26.464Z,25.32
2018-04-06T02:34:26.651Z,25.27
2018-04-06T02:35:25.999Z,25.37
2018-04-06T02:36:26.094Z,25.22
2018-04-06T02:37:25.947Z,25.12
2018-04-06T02:38:25.922Z,25.12
2018-04-06T02:39:26.392Z,25.12
2018-04-06T02:40:25.869Z,25.07
2018-04-06T02:41:26.413Z,25.07
2018-04-06T02:42:25.973Z,25.02
2018-04-06T02:43:26.420Z,24.93
2018-04-06T02:44:25.748Z,24.83
2018-04-06T02:45:25.729Z,24.83
2018-04-06T02:46:25.687Z,24.77
2018-04-06T02:47:25.767Z,24.70
2018-04-06T02:48:25.652Z,24.66
2018-04-06T02:49:26.170Z,24.64
2018-04-06T02:50:25.600Z,24.59
2018-04-06T02:51:25.583Z,24.64
2018-04-06T02:52:25.642Z,24.64
2018-04-06T02:53:25.515Z,24.69
2018-04-06T02:54:25.564Z,24.71
2018-04-06T02:55:25.459Z,24.56
2018-04-06T02:56:25.422Z,24.67
2018-04-06T02:57:25.623Z,24.59
2018-04-06T02:58:25.508Z,24.67
2018-04-06T02:59:25.866Z,24.59
2018-04-06T03:00:25.309Z,24.51
2018-04-06T03:01:25.297Z,24.48
2018-04-06T03:02:25.295Z,24.54
2018-04-06T03:03:25.242Z,24.48
2018-04-06T03:04:25.320Z,24.52
2018-04-06T03:05:25.199Z,24.55
2018-04-06T03:06:25.175Z,24.51
2018-04-06T03:07:25.140Z,24.58
2018-04-06T03:08:25.134Z,24.51
2018-04-06T03:09:25.252Z,24.44
2018-04-06T03:10:25.268Z,24.58
2018-04-06T03:11:25.251Z,24.63
2018-04-06T03:12:25.003Z,24.51
2018-04-06T03:13:24.970Z,24.51
2018-04-06T03:14:24.971Z,24.48
2018-04-06T03:15:25.046Z,24.54
2018-04-06T03:16:24.899Z,24.48
2018-04-06T03:17:25.390Z,24.44
2018-04-06T03:18:25.698Z,24.44
2018-04-06T03:19:25.211Z,24.54
2018-04-06T03:20:24.902Z,24.46
2018-04-06T03:21:25.284Z,24.44
2018-04-06T03:22:24.788Z,24.52
2018-04-06T03:23:24.707Z,24.45
2018-04-06T03:24:24.679Z,24.44
2018-04-06T03:25:24.972Z,24.32
2018-04-06T03:26:25.149Z,24.22
2018-04-06T03:27:24.595Z,24.29
2018-04-06T03:28:24.562Z,24.19
2018-04-06T03:29:24.537Z,24.26
2018-04-06T03:30:24.620Z,24.19
2018-04-06T03:31:25.047Z,24.22
2018-04-06T03:32:24.488Z,24.26
2018-04-06T03:33:24.980Z,24.14
2018-04-06T03:34:24.394Z,24.09
2018-04-06T03:35:24.442Z,24.18
2018-04-06T03:36:24.465Z,24.18
2018-04-06T03:37:24.310Z,24.30
2018-04-06T03:38:24.860Z,24.21
2018-04-06T03:39:24.376Z,24.21
2018-04-06T03:40:24.230Z,24.24
2018-04-06T03:41:24.205Z,24.24
2018-04-06T03:42:24.236Z,24.22
2018-04-06T03:43:24.166Z,24.21
2018-04-06T03:44:24.697Z,24.22
2018-04-06T03:45:24.132Z,24.21
2018-04-06T03:46:24.051Z,24.29
2018-04-06T03:47:24.113Z,24.27
2018-04-06T03:48:24.110Z,24.29
2018-04-06T03:49:24.515Z,24.21
2018-04-06T03:50:23.952Z,24.26
2018-04-06T03:51:23.958Z,24.22
2018-04-06T03:52:23.929Z,24.22
2018-04-06T03:53:23.987Z,24.22
2018-04-06T03:54:23.949Z,24.19
2018-04-06T03:55:23.838Z,24.19
2018-04-06T03:56:23.800Z,24.26
2018-04-06T03:57:23.812Z,24.21
2018-04-06T03:58:23.845Z,24.19
2018-04-06T03:59:23.730Z,24.22
2018-04-06T04:00:23.689Z,24.22
2018-04-06T04:01:23.677Z,24.19
2018-04-06T04:02:24.154Z,24.27
2018-04-06T04:03:23.719Z,24.22
2018-04-06T04:04:23.574Z,24.29
2018-04-06T04:05:23.560Z,24.24
2018-04-06T04:06:23.543Z,24.24
2018-04-06T04:07:23.523Z,24.30
2018-04-06T04:08:23.574Z,24.34
2018-04-06T04:09:23.653Z,24.40
2018-04-06T04:10:23.434Z,24.33
2018-04-06T04:11:23.414Z,24.45
2018-04-06T04:12:23.404Z,24.49
2018-04-06T04:13:23.352Z,24.44
2018-04-06T04:14:23.359Z,24.42
2018-04-06T04:15:23.584Z,24.46
2018-04-06T04:16:23.271Z,24.36
2018-04-06T04:17:23.222Z,24.34
2018-04-06T04:18:23.284Z,24.26
2018-04-06T04:19:23.198Z,24.19
2018-04-06T04:20:23.358Z,24.19
2018-04-06T04:21:23.132Z,24.26
2018-04-06T04:22:23.155Z,24.22
2018-04-06T04:23:23.087Z,24.29
2018-04-06T04:24:23.040Z,24.22
2018-04-06T04:25:23.125Z,24.22
2018-04-06T04:26:23.145Z,24.19
2018-04-06T04:27:22.976Z,24.18
2018-04-06T04:28:22.919Z,24.24
2018-04-06T04:29:22.916Z,24.21
2018-04-06T04:30:22.920Z,24.24
2018-04-06T04:31:22.956Z,24.22
2018-04-06T04:32:22.822Z,24.24
2018-04-06T04:33:22.837Z,24.27
2018-04-06T04:34:22.779Z,24.21
2018-04-06T04:35:22.757Z,24.26
2018-04-06T04:36:22.818Z,24.19
2018-04-06T04:37:22.703Z,24.22
2018-04-06T04:38:22.680Z,24.21
2018-04-06T04:39:22.643Z,24.19
2018-04-06T04:40:22.616Z,24.27
2018-04-06T04:41:22.694Z,24.24
2018-04-06T04:42:22.568Z,24.29
2018-04-06T04:43:22.562Z,24.09
2018-04-06T04:44:22.510Z,24.26
2018-04-06T04:45:22.479Z,24.22
2018-04-06T04:46:22.454Z,24.26
2018-04-06T04:47:22.556Z,24.29
2018-04-06T04:48:22.400Z,24.29
2018-04-06T04:49:22.386Z,24.22
2018-04-06T04:50:22.342Z,24.30
2018-04-06T04:51:22.443Z,24.33
2018-04-06T04:52:22.277Z,24.19
2018-04-06T04:53:22.313Z,24.33
2018-04-06T04:54:22.234Z,24.22
2018-04-06T04:55:22.221Z,24.27
2018-04-06T04:56:22.168Z,24.22
2018-04-06T04:57:22.173Z,24.21
2018-04-06T04:58:22.195Z,24.24
2018-04-06T04:59:22.090Z,24.22
2018-04-06T05:00:22.079Z,24.26
2018-04-06T05:01:22.036Z,24.26
2018-04-06T05:02:22.035Z,24.29
2018-04-06T05:03:22.078Z,24.29
2018-04-06T05:04:21.957Z,24.32
2018-04-06T05:05:21.947Z,24.33
2018-04-06T05:06:21.925Z,24.36
2018-04-06T05:07:21.887Z,24.22
2018-04-06T05:08:22.025Z,24.29
2018-04-06T05:09:21.818Z,24.22
2018-04-06T05:10:21.796Z,24.29
2018-04-06T05:11:21.760Z,24.19
2018-04-06T05:12:21.741Z,24.27
2018-04-06T05:13:21.806Z,24.26
2018-04-06T05:14:21.694Z,24.29
2018-04-06T05:15:21.706Z,24.26
2018-04-06T05:16:21.630Z,24.21
2018-04-06T05:17:21.601Z,24.24
2018-04-06T05:18:21.689Z,24.22
2018-04-06T05:19:21.553Z,24.27
2018-04-06T05:20:21.535Z,24.29
2018-04-06T05:21:21.500Z,24.26
2018-04-06T05:22:21.499Z,24.18
2018-04-06T05:23:21.442Z,24.18
2018-04-06T05:24:21.683Z,24.22
2018-04-06T05:25:21.375Z,24.26
2018-04-06T05:26:21.343Z,24.27
2018-04-06T05:27:21.330Z,24.17
2018-04-06T05:28:21.301Z,24.17
2018-04-06T05:29:21.286Z,24.22
2018-04-06T05:30:21.287Z,24.22
2018-04-06T05:31:21.224Z,24.26
2018-04-06T05:32:21.228Z,24.22
2018-04-06T05:33:21.169Z,24.19
2018-04-06T05:34:21.156Z,24.17
2018-04-06T05:35:21.243Z,24.11
2018-04-06T05:36:21.096Z,24.12
2018-04-06T05:37:21.044Z,24.17
2018-04-06T05:38:21.036Z,24.08
2018-04-06T05:39:21.008Z,24.07
2018-04-06T05:40:21.083Z,24.09
2018-04-06T05:41:20.942Z,24.09
2018-04-06T05:42:20.917Z,24.09
2018-04-06T05:43:20.896Z,23.96
2018-04-06T05:44:20.880Z,24.02
2018-04-06T05:45:20.937Z,23.97
2018-04-06T05:46:20.804Z,24.03
2018-04-06T05:47:20.795Z,23.96
2018-04-06T05:48:20.769Z,24.08
2018-04-06T05:49:20.726Z,24.07
2018-04-06T05:50:20.801Z,24.04
2018-04-06T05:51:20.726Z,23.97
2018-04-06T05:52:20.660Z,24.00
2018-04-06T05:53:20.626Z,23.97
2018-04-06T05:54:20.601Z,24.00
2018-04-06T05:55:20.682Z,24.09
2018-04-06T05:56:20.540Z,24.07
2018-04-06T05:57:20.513Z,24.12
2018-04-06T05:58:20.535Z,24.04
2018-04-06T05:59:20.473Z,24.09
2018-04-06T06:00:20.432Z,24.09
2018-04-06T06:01:20.497Z,24.04
2018-04-06T06:02:20.377Z,24.09
2018-04-06T06:03:20.359Z,24.07
2018-04-06T06:04:20.332Z,24.02
2018-04-06T06:05:20.308Z,23.99
2018-04-06T06:06:20.279Z,23.97
2018-04-06T06:07:20.269Z,24.00
2018-04-06T06:08:20.214Z,24.00
2018-04-06T06:09:20.179Z,23.90
2018-04-06T06:10:20.168Z,23.92
2018-04-06T06:11:20.150Z,23.96
2018-04-06T06:12:20.217Z,23.97
2018-04-06T06:13:20.063Z,23.97
2018-04-06T06:14:20.081Z,23.99
2018-04-06T06:15:20.031Z,24.03
2018-04-06T06:16:19.984Z,23.97
2018-04-06T06:17:20.084Z,24.08
2018-04-06T06:18:19.925Z,24.11
2018-04-06T06:19:19.904Z,23.96
2018-04-06T06:20:19.892Z,24.09
2018-04-06T06:21:19.862Z,24.03
2018-04-06T06:22:19.933Z,24.07
2018-04-06T06:23:19.805Z,24.08
2018-04-06T06:24:19.768Z,24.04
2018-04-06T06:25:19.823Z,24.14
2018-04-06T06:26:19.708Z,24.09
2018-04-06T06:27:19.837Z,24.21
2018-04-06T06:28:19.657Z,24.17
2018-04-06T06:29:19.681Z,24.26
2018-04-06T06:30:19.620Z,24.19
2018-04-06T06:31:19.610Z,24.22
2018-04-06T06:32:19.649Z,24.27
2018-04-06T06:33:19.526Z,24.21
2018-04-06T06:34:19.541Z,24.30
2018-04-06T06:35:19.481Z,24.27
2018-04-06T06:36:19.446Z,24.21
2018-04-06T06:37:19.421Z,24.15
2018-04-06T06:38:19.499Z,24.21
2018-04-06T06:39:19.382Z,24.14
2018-04-06T06:40:19.340Z,24.12
2018-04-06T06:41:19.310Z,24.22
2018-04-06T06:42:19.298Z,24.21
2018-04-06T06:43:19.258Z,24.22
2018-04-06T06:44:19.239Z,24.15
2018-04-06T06:45:19.218Z,24.17
2018-04-06T06:46:19.178Z,24.21
2018-04-06T06:47:19.158Z,24.19
2018-04-06T06:48:19.133Z,24.22
2018-04-06T06:49:19.231Z,24.27
2018-04-06T06:50:19.080Z,24.26
2018-04-06T06:51:19.038Z,24.36
2018-04-06T06:52:19.021Z,24.36
2018-04-06T06:53:19.000Z,24.39
2018-04-06T06:54:19.079Z,24.36
2018-04-06T06:55:18.935Z,24.33
2018-04-06T06:56:18.921Z,24.22
2018-04-06T06:57:18.914Z,24.22
2018-04-06T06:58:18.842Z,24.34
2018-04-06T06:59:18.921Z,24.19
2018-04-06T07:00:18.799Z,24.26
2018-04-06T07:01:18.805Z,24.36
2018-04-06T07:02:18.743Z,24.34
2018-04-06T07:03:18.733Z,24.18
2018-04-06T07:04:18.898Z,24.21
2018-04-06T07:05:18.703Z,24.19
2018-04-06T07:06:18.629Z,24.24
2018-04-06T07:07:18.607Z,24.22
2018-04-06T07:08:18.576Z,24.19
2018-04-06T07:09:18.680Z,24.15
2018-04-06T07:10:18.543Z,24.18
2018-04-06T07:11:18.496Z,24.21
2018-04-06T07:12:18.473Z,24.11
2018-04-06T07:13:18.453Z,24.12
2018-04-06T07:14:18.403Z,24.14
2018-04-06T07:15:18.480Z,24.11
2018-04-06T07:16:18.350Z,24.21
2018-04-06T07:17:18.326Z,24.26
2018-04-06T07:18:18.302Z,24.26
2018-04-06T07:19:18.336Z,24.33
2018-04-06T07:20:18.246Z,24.33
2018-04-06T07:21:18.267Z,24.36
2018-04-06T07:22:18.182Z,24.29
2018-04-06T07:23:18.163Z,24.24
2018-04-06T07:24:18.147Z,24.36
2018-04-06T07:25:18.100Z,24.33
2018-04-06T07:26:18.190Z,24.36
2018-04-06T07:27:18.078Z,24.37
2018-04-06T07:28:18.029Z,24.39
2018-04-06T07:29:18.057Z,24.36
2018-04-06T07:30:17.961Z,24.34
2018-04-06T07:31:18.039Z,24.36
2018-04-06T07:32:17.912Z,24.34
2018-04-06T07:33:17.890Z,24.36
2018-04-06T07:34:17.898Z,24.32
2018-04-06T07:35:17.868Z,24.32
2018-04-06T07:36:17.916Z,24.22
2018-04-06T07:37:17.832Z,24.33
2018-04-06T07:38:17.820Z,24.34
2018-04-06T07:39:17.730Z,24.33
2018-04-06T07:40:17.711Z,24.40
2018-04-06T07:41:17.764Z,24.40
2018-04-06T07:42:17.656Z,24.39
2018-04-06T07:43:17.608Z,24.40
2018-04-06T07:44:17.646Z,24.29
2018-04-06T07:45:17.562Z,24.42
2018-04-06T07:46:17.565Z,24.40
2018-04-06T07:47:17.597Z,24.42
2018-04-06T07:48:17.481Z,24.45
2018-04-06T07:49:17.447Z,24.48
2018-04-06T07:50:17.510Z,24.46
2018-04-06T07:51:17.408Z,24.39
2018-04-06T07:52:17.368Z,24.39
2018-04-06T07:53:17.438Z,24.39
2018-04-06T07:54:17.317Z,24.34
2018-04-06T07:55:17.284Z,24.33
2018-04-06T07:56:17.265Z,24.36
2018-04-06T07:57:17.237Z,24.40
2018-04-06T07:58:17.226Z,24.42
2018-04-06T07:59:17.269Z,24.39
2018-04-06T08:00:17.151Z,24.36
2018-04-06T08:01:17.144Z,24.45
2018-04-06T08:02:17.112Z,24.40
2018-04-06T08:03:17.082Z,24.46
2018-04-06T08:04:17.148Z,24.45
2018-04-06T08:05:17.059Z,24.44
2018-04-06T08:06:17.007Z,24.40
2018-04-06T08:07:16.984Z,24.46
2018-04-06T08:08:16.941Z,24.46
2018-04-06T08:09:17.018Z,24.34
2018-04-06T08:10:16.884Z,24.48
2018-04-06T08:11:16.852Z,24.36
2018-04-06T08:12:16.848Z,24.40
2018-04-06T08:13:16.803Z,24.45
2018-04-06T08:14:16.918Z,24.45
2018-04-06T08:15:16.750Z,24.46
2018-04-06T08:16:16.715Z,24.49
2018-04-06T08:17:16.709Z,24.48
2018-04-06T08:18:16.709Z,24.52
2018-04-06T08:19:16.640Z,24.44
2018-04-06T08:20:16.640Z,24.40
2018-04-06T08:21:16.600Z,24.45
2018-04-06T08:22:16.585Z,24.49
2018-04-06T08:23:16.566Z,24.44
2018-04-06T08:24:16.545Z,24.48
2018-04-06T08:25:16.479Z,24.48
2018-04-06T08:26:16.479Z,24.49
2018-04-06T08:27:16.421Z,24.48
2018-04-06T08:28:16.385Z,24.51
2018-04-06T08:29:16.362Z,24.52
2018-04-06T08:30:16.424Z,24.52
2018-04-06T08:31:16.312Z,24.51
2018-04-06T08:32:16.303Z,24.51
2018-04-06T08:33:16.262Z,24.55
2018-04-06T08:34:16.274Z,24.46
2018-04-06T08:35:16.313Z,24.51
2018-04-06T08:36:16.210Z,24.49
2018-04-06T08:37:16.136Z,24.44
2018-04-06T08:38:16.168Z,24.54
2018-04-06T08:39:16.104Z,24.51
2018-04-06T08:40:16.175Z,24.51
2018-04-06T08:41:16.052Z,24.51
2018-04-06T08:42:16.031Z,24.52
2018-04-06T08:43:15.986Z,24.48
2018-04-06T08:44:15.962Z,24.46
2018-04-06T08:45:16.066Z,24.51
2018-04-06T08:46:15.907Z,24.45
2018-04-06T08:47:15.869Z,24.48
2018-04-06T08:48:15.844Z,24.51
2018-04-06T08:49:15.812Z,24.44
2018-04-06T08:50:15.789Z,24.45
2018-04-06T08:51:15.860Z,24.42
2018-04-06T08:52:15.785Z,24.42
2018-04-06T08:53:15.708Z,24.51
2018-04-06T08:54:15.680Z,24.46
2018-04-06T08:55:15.666Z,24.44
2018-04-06T08:56:15.732Z,24.42
2018-04-06T08:57:15.603Z,24.42
2018-04-06T08:58:15.586Z,24.49
2018-04-06T08:59:15.559Z,24.46
2018-04-06T09:00:15.519Z,24.56
2018-04-06T09:01:15.515Z,24.52
2018-04-06T09:02:15.603Z,24.46
2018-04-06T09:03:15.435Z,24.49
2018-04-06T09:04:15.430Z,24.45
2018-04-06T09:05:15.408Z,24.49
2018-04-06T09:06:15.370Z,24.55
2018-04-06T09:07:15.396Z,24.49
2018-04-06T09:08:15.294Z,24.52
2018-04-06T09:09:15.276Z,24.52
2018-04-06T09:10:15.246Z,24.52
2018-04-06T09:11:15.222Z,24.46
2018-04-06T09:12:15.285Z,24.54
2018-04-06T09:13:15.197Z,24.56
2018-04-06T09:14:15.152Z,24.49
2018-04-06T09:15:15.154Z,24.49
2018-04-06T09:16:15.097Z,24.54
2018-04-06T09:17:15.195Z,24.49
2018-04-06T09:18:15.043Z,24.48
2018-04-06T09:19:15.009Z,24.48
2018-04-06T09:20:15.003Z,24.51
2018-04-06T09:21:14.996Z,24.44
2018-04-06T09:22:15.108Z,24.39
2018-04-06T09:23:14.904Z,24.48
2018-04-06T09:24:14.868Z,24.36
2018-04-06T09:25:14.839Z,24.44
2018-04-06T09:26:14.878Z,24.45
2018-04-06T09:27:14.785Z,24.51
2018-04-06T09:28:14.761Z,24.54
2018-04-06T09:29:14.747Z,24.54
2018-04-06T09:30:14.699Z,24.52
2018-04-06T09:31:14.697Z,24.59
2018-04-06T09:32:14.656Z,24.54
2018-04-06T09:33:14.745Z,24.51
2018-04-06T09:34:14.597Z,24.52
2018-04-06T09:35:14.576Z,24.52
2018-04-06T09:36:14.555Z,24.52
2018-04-06T09:37:14.598Z,24.51
2018-04-06T09:38:14.507Z,24.56
2018-04-06T09:39:14.471Z,24.48
2018-04-06T09:40:14.449Z,24.49
2018-04-06T09:41:14.416Z,24.48
2018-04-06T09:42:14.392Z,24.51
2018-04-06T09:43:14.425Z,24.39
2018-04-06T09:44:14.372Z,24.40
2018-04-06T09:45:14.315Z,24.48
2018-04-06T09:46:14.288Z,24.51
2018-04-06T09:47:14.243Z,24.45
2018-04-06T09:48:14.233Z,24.54
2018-04-06T09:49:14.300Z,24.54
2018-04-06T09:50:14.180Z,24.51
2018-04-06T09:51:14.158Z,24.52
2018-04-06T09:52:14.160Z,24.46
2018-04-06T09:53:14.131Z,24.46
2018-04-06T09:54:14.156Z,24.54
2018-04-06T09:55:14.111Z,24.56
2018-04-06T09:56:14.022Z,24.55
2018-04-06T09:57:14.001Z,24.54
2018-04-06T09:58:13.971Z,24.46
2018-04-06T09:59:13.937Z,24.55
2018-04-06T10:00:13.954Z,24.49
2018-04-06T10:01:13.872Z,24.49
2018-04-06T10:02:13.843Z,24.54
2018-04-06T10:03:13.808Z,24.52
2018-04-06T10:04:13.813Z,24.52
2018-04-06T10:05:13.848Z,24.52
2018-04-06T10:06:13.735Z,24.52
2018-04-06T10:07:13.717Z,24.51
2018-04-06T10:08:13.696Z,24.49
2018-04-06T10:09:13.869Z,24.48
2018-04-06T10:10:13.726Z,24.49
2018-04-06T10:11:13.625Z,24.49
2018-04-06T10:12:13.654Z,24.63
2018-04-06T10:13:13.554Z,24.49
2018-04-06T10:14:13.517Z,24.63
2018-04-06T10:15:13.616Z,24.69
2018-04-06T10:16:13.525Z,24.56
2018-04-06T10:17:13.436Z,24.59
2018-04-06T10:18:13.412Z,24.64
2018-04-06T10:19:13.378Z,24.55
2018-04-06T10:20:13.367Z,24.51
2018-04-06T10:21:13.429Z,24.55
2018-04-06T10:22:13.309Z,24.49
2018-04-06T10:23:13.271Z,24.54
2018-04-06T10:24:13.259Z,24.56
2018-04-06T10:25:13.216Z,24.58
2018-04-06T10:26:13.328Z,24.58
2018-04-06T10:27:13.319Z,24.61
2018-04-06T10:28:13.140Z,24.61
2018-04-06T10:29:13.125Z,24.66
2018-04-06T10:30:13.094Z,24.59
2018-04-06T10:31:13.098Z,24.63
2018-04-06T10:32:13.122Z,24.63
2018-04-06T10:33:13.057Z,24.54
2018-04-06T10:34:12.965Z,24.61
2018-04-06T10:35:12.993Z,24.54
2018-04-06T10:36:12.924Z,24.61
2018-04-06T10:37:12.891Z,24.59
2018-04-06T10:38:13.131Z,24.61
2018-04-06T10:39:12.855Z,24.69
2018-04-06T10:40:12.806Z,24.63
2018-04-06T10:41:12.776Z,24.69
2018-04-06T10:42:12.764Z,24.66
2018-04-06T10:43:12.824Z,24.64
2018-04-06T10:44:12.703Z,24.64
2018-04-06T10:45:12.774Z,24.59
2018-04-06T10:46:12.646Z,24.63
2018-04-06T10:47:12.631Z,24.63
2018-04-06T10:48:12.750Z,24.64
2018-04-06T10:49:12.575Z,24.64
2018-04-06T10:50:12.552Z,24.63
2018-04-06T10:51:12.499Z,24.66
2018-04-06T10:52:12.480Z,24.63
2018-04-06T10:53:12.463Z,24.63
2018-04-06T10:54:12.542Z,24.61
2018-04-06T10:55:12.406Z,24.59
2018-04-06T10:56:12.396Z,24.63
2018-04-06T10:57:12.387Z,24.58
2018-04-06T10:58:12.328Z,24.61
2018-04-06T10:59:12.297Z,24.67
2018-04-06T11:00:12.386Z,24.54
2018-04-06T11:01:12.252Z,24.55
2018-04-06T11:02:12.221Z,24.59
2018-04-06T11:03:12.187Z,24.61
2018-04-06T11:04:12.168Z,24.49
2018-04-06T11:05:12.367Z,24.51
2018-04-06T11:06:12.099Z,24.49
2018-04-06T11:07:12.095Z,24.49
2018-04-06T11:08:12.048Z,24.52
2018-04-06T11:09:12.024Z,24.48
2018-04-06T11:10:12.023Z,24.66
2018-04-06T11:11:11.994Z,24.54
2018-04-06T11:12:11.955Z,24.67
2018-04-06T11:13:11.903Z,24.52
2018-04-06T11:14:11.951Z,24.46
2018-04-06T11:15:11.854Z,24.46
2018-04-06T11:16:11.942Z,24.52
2018-04-06T11:17:11.799Z,24.49
2018-04-06T11:18:11.781Z,24.55
2018-04-06T11:19:11.770Z,24.49
2018-04-06T11:20:11.733Z,24.46
2018-04-06T11:21:11.787Z,24.48
2018-04-06T11:22:11.676Z,24.46
2018-04-06T11:23:11.671Z,24.52
2018-04-06T11:24:11.625Z,24.39
2018-04-06T11:25:11.577Z,24.42
2018-04-06T11:26:11.663Z,24.44
2018-04-06T11:27:11.527Z,24.51
2018-04-06T11:28:11.518Z,24.48
2018-04-06T11:29:11.489Z,24.42
2018-04-06T11:30:11.465Z,24.52
2018-04-06T11:31:11.438Z,24.45
2018-04-06T11:32:11.446Z,24.36
2018-04-06T11:33:11.377Z,24.45
2018-04-06T11:34:11.455Z,24.55
2018-04-06T11:35:11.340Z,24.52
2018-04-06T11:36:11.307Z,24.39
2018-04-06T11:37:11.351Z,24.45
2018-04-06T11:38:11.255Z,24.46
2018-04-06T11:39:11.226Z,24.44
2018-04-06T11:40:11.285Z,24.48
2018-04-06T11:41:11.155Z,24.44
2018-04-06T11:42:11.204Z,24.54
2018-04-06T11:43:11.090Z,24.44
2018-04-06T11:44:11.131Z,24.49
2018-04-06T11:45:11.596Z,24.51
2018-04-06T11:46:11.007Z,24.48
2018-04-06T11:47:10.990Z,24.48
2018-04-06T11:48:11.001Z,24.64
2018-04-06T11:49:10.992Z,24.59
2018-04-06T11:50:10.908Z,24.58
2018-04-06T11:51:10.949Z,24.63
2018-04-06T11:52:10.853Z,24.61
2018-04-06T11:53:10.912Z,24.58
2018-04-06T11:54:10.832Z,24.56
2018-04-06T11:55:10.774Z,24.64
2018-04-06T11:56:10.772Z,24.67
2018-04-06T11:57:10.901Z,24.58
2018-04-06T11:58:10.829Z,24.63
2018-04-06T11:59:10.668Z,24.63
2018-04-06T12:00:10.641Z,24.67
2018-04-06T12:01:10.608Z,24.64
2018-04-06T12:02:10.590Z,24.70
2018-04-06T12:03:10.662Z,24.74
2018-04-06T12:04:10.535Z,24.78
2018-04-06T12:05:10.630Z,24.83
2018-04-06T12:06:10.483Z,24.75
2018-04-06T12:07:10.438Z,24.77
2018-04-06T12:08:10.416Z,24.80
2018-04-06T12:09:10.492Z,24.77
2018-04-06T12:10:10.378Z,24.78
2018-04-06T12:11:10.337Z,24.90
2018-04-06T12:12:10.312Z,24.89
2018-04-06T12:13:10.348Z,24.92
2018-04-06T12:14:10.269Z,25.02
2018-04-06T12:15:10.237Z,25.05
2018-04-06T12:16:10.216Z,25.17
2018-04-06T12:17:10.174Z,25.07
2018-04-06T12:18:10.147Z,25.12
2018-04-06T12:19:10.143Z,25.26
2018-04-06T12:20:10.114Z,25.27
2018-04-06T12:21:10.093Z,25.32
2018-04-06T12:22:10.117Z,25.29
2018-04-06T12:23:10.026Z,25.38
2018-04-06T12:24:10.015Z,25.37
2018-04-06T12:25:10.058Z,25.30
2018-04-06T12:26:09.941Z,25.33
2018-04-06T12:27:09.917Z,25.38
2018-04-06T12:28:09.918Z,25.39
2018-04-06T12:29:09.864Z,25.44
2018-04-06T12:30:09.928Z,25.54
2018-04-06T12:31:09.848Z,25.57
2018-04-06T12:32:09.800Z,25.63
2018-04-06T12:33:09.782Z,25.71
2018-04-06T12:34:09.740Z,25.67
2018-04-06T12:35:09.821Z,25.78
2018-04-06T12:36:09.670Z,25.88
2018-04-06T12:37:09.632Z,25.84
2018-04-06T12:38:09.654Z,26.03
2018-04-06T12:39:09.588Z,25.96
2018-04-06T12:40:09.763Z,25.93
2018-04-06T12:41:09.551Z,26.01
2018-04-06T12:42:09.511Z,25.91
2018-04-06T12:43:09.474Z,26.04
2018-04-06T12:44:09.521Z,26.12
2018-04-06T12:45:09.453Z,26.17
2018-04-06T12:46:09.502Z,26.20
2018-04-06T12:47:09.381Z,26.16
2018-04-06T12:48:09.382Z,26.23
2018-04-06T12:49:09.365Z,26.15
2018-04-06T12:50:09.287Z,26.26
2018-04-06T12:51:09.334Z,26.22
2018-04-06T12:52:09.352Z,26.17
2018-04-06T12:53:09.225Z,26.19
2018-04-06T12:54:09.193Z,26.17
2018-04-06T12:55:09.174Z,26.27
2018-04-06T12:56:09.146Z,26.22
2018-04-06T12:57:09.216Z,26.26
2018-04-06T12:58:09.084Z,26.30
2018-04-06T12:59:09.068Z,26.31
2018-04-06T13:00:09.024Z,26.37
2018-04-06T13:01:09.039Z,26.47
2018-04-06T13:02:09.135Z,26.44
2018-04-06T13:03:08.937Z,26.45
2018-04-06T13:04:09.084Z,26.45
2018-04-06T13:05:08.890Z,26.52
2018-04-06T13:06:08.879Z,26.49
2018-04-06T13:07:08.956Z,26.52
2018-04-06T13:08:08.833Z,26.52
2018-04-06T13:09:08.816Z,26.57
2018-04-06T13:10:08.765Z,26.63
2018-04-06T13:11:08.743Z,26.67
2018-04-06T13:12:08.817Z,26.74
2018-04-06T13:13:08.680Z,26.71
2018-04-06T13:14:08.664Z,26.79
2018-04-06T13:15:08.631Z,26.78
2018-04-06T13:16:08.600Z,26.79
2018-04-06T13:17:08.697Z,26.82
2018-04-06T13:18:08.551Z,26.90